createdAt,value
2023-03-11T13:06:00.362Z,31.50
2023-03-11T13:08:37.791Z,31.50
2023-03-11T13:11:42.886Z,26.92
2023-03-11T13:14:34.615Z,34.35
2023-03-11T13:17:27.571Z,29.23
2023-03-11T13:20:01.203Z,33.85
2023-03-11T13:23:13.970Z,24.23
2023-03-11T13:26:14.081Z,23.90
2023-03-11T13:28:59.150Z,24.88
2023-03-11T13:31:50.288Z,29.25
2023-03-11T13:34:36.724Z,29.65
2023-03-11T13:37:22.871Z,36.53
2023-03-11T13:40:14.285Z,23.23
2023-03-11T13:42:51.912Z,29.83
2023-03-11T13:45:30.245Z,24.90
2023-03-11T13:48:08.293Z,27.52
2023-03-11T13:50:48.031Z,24.63
2023-03-11T13:53:26.942Z,23.95
2023-03-11T13:56:00.502Z,15.60
2023-03-11T13:58:35.224Z,19.15
2023-03-11T14:01:17.683Z,12.02
2023-03-11T14:03:52.004Z,18.73
2023-03-11T14:06:25.462Z,17.02
2023-03-11T14:08:59.615Z,18.30
2023-03-11T14:11:32.947Z,11.27
2023-03-11T14:14:35.039Z,14.75
2023-03-11T14:17:13.719Z,20.08
2023-03-11T14:20:12.096Z,13.48
2023-03-11T14:22:47.853Z,12.45
2023-03-11T14:25:23.662Z,18.30
2023-03-11T14:27:58.986Z,16.90
2023-03-11T14:30:35.805Z,14.23
2023-03-11T14:33:23.090Z,15.52
2023-03-11T14:35:58.100Z,12.65
2023-03-11T14:38:33.448Z,14.18
2023-03-11T14:41:08.055Z,12.15
2023-03-11T14:43:45.645Z,9.32
2023-03-11T14:46:25.175Z,13.02
2023-03-11T14:48:59.481Z,11.80
2023-03-11T14:51:35.475Z,10.32
2023-03-11T14:54:17.680Z,10.60
2023-03-11T14:56:57.126Z,11.05
2023-03-11T14:59:33.344Z,8.30
2023-03-11T15:02:27.809Z,7.03
2023-03-11T15:07:37.485Z,8.48
2023-03-11T15:12:46.161Z,10.02
2023-03-11T15:15:25.005Z,11.77
2023-03-11T15:18:01.413Z,11.93
2023-03-11T15:20:36.850Z,276.92
2023-03-11T15:23:22.332Z,625.65
2023-03-11T15:25:55.733Z,704.75
2023-03-11T15:28:31.702Z,742.78
2023-03-11T15:31:33.080Z,457.63
2023-03-11T15:34:25.476Z,396.30
2023-03-11T15:37:06.409Z,335.25
2023-03-11T15:39:46.482Z,290.55
2023-03-11T15:42:24.399Z,267.58
2023-03-11T15:45:14.328Z,245.90
2023-03-11T15:47:49.454Z,218.60
2023-03-11T15:50:40.198Z,181.00
2023-03-11T15:53:16.730Z,151.25
2023-03-11T15:55:50.338Z,172.98
2023-03-11T15:58:23.876Z,159.77
2023-03-11T16:00:58.499Z,138.95
2023-03-11T16:03:31.865Z,120.05
2023-03-11T16:06:06.988Z,125.47
2023-03-11T16:08:40.506Z,114.80
2023-03-11T16:11:14.514Z,98.25
2023-03-11T16:13:47.899Z,103.53
2023-03-11T16:16:21.318Z,100.82
2023-03-11T16:18:54.688Z,98.07
2023-03-11T16:21:35.819Z,81.65
2023-03-11T16:24:13.374Z,76.88
2023-03-11T16:26:46.778Z,77.00
2023-03-11T16:29:23.303Z,69.30
2023-03-11T16:31:56.793Z,73.53
2023-03-11T16:34:30.213Z,64.55
2023-03-11T16:37:05.397Z,62.95
2023-03-11T16:39:38.760Z,64.47
2023-03-11T16:42:12.161Z,55.53
2023-03-11T16:44:46.070Z,52.05
2023-03-11T16:47:19.787Z,52.20
2023-03-11T16:49:53.611Z,53.78
2023-03-11T16:52:28.423Z,43.17
2023-03-11T16:55:01.917Z,47.55
2023-03-11T16:57:35.274Z,48.33
2023-03-11T17:00:11.091Z,42.85
2023-03-11T17:02:44.819Z,38.67
2023-03-11T17:05:18.723Z,40.42
2023-03-11T17:08:00.094Z,46.90
2023-03-11T17:10:38.759Z,34.38
2023-03-11T17:13:13.626Z,39.85
2023-03-11T17:15:47.047Z,33.25
2023-03-11T17:18:20.405Z,39.90
2023-03-11T17:20:53.756Z,28.70
2023-03-11T17:23:28.573Z,30.00
2023-03-11T17:26:02.114Z,33.90
2023-03-11T17:28:36.136Z,34.47
2023-03-11T17:31:13.018Z,27.67
2023-03-11T17:33:47.421Z,29.65
2023-03-11T17:36:20.814Z,34.90
2023-03-11T17:38:56.060Z,26.67
2023-03-11T17:41:29.619Z,22.33
2023-03-11T17:44:03.047Z,22.58
2023-03-11T17:46:38.813Z,29.50
2023-03-11T17:49:15.227Z,22.48
2023-03-11T17:51:49.371Z,22.13
2023-03-11T17:54:24.479Z,27.55
2023-03-11T17:56:57.839Z,33.15
2023-03-11T17:59:31.222Z,30.75
2023-03-11T18:02:04.721Z,28.58
2023-03-11T18:04:39.134Z,40.83
2023-03-11T18:07:12.543Z,37.25
2023-03-11T18:09:47.569Z,36.10
2023-03-11T18:12:21.602Z,38.08
2023-03-11T18:14:54.980Z,37.92
2023-03-11T18:17:29.472Z,35.05
2023-03-11T18:20:02.888Z,47.72
2023-03-11T18:22:37.273Z,32.80
2023-03-11T18:25:13.930Z,28.70
2023-03-11T18:27:47.328Z,27.67
2023-03-11T18:30:20.988Z,25.48
2023-03-11T18:35:27.836Z,19.67
2023-03-11T18:38:01.206Z,31.50
2023-03-11T18:40:36.059Z,20.65
2023-03-11T18:43:12.066Z,21.30
2023-03-11T18:45:45.420Z,20.00
2023-03-11T18:48:19.025Z,16.35
2023-03-11T18:50:53.323Z,17.75
2023-03-11T18:53:26.799Z,22.33
2023-03-11T18:56:07.085Z,18.00
2023-03-11T18:58:40.480Z,17.00
2023-03-11T19:01:16.047Z,18.58
2023-03-11T19:03:51.513Z,18.00
2023-03-11T19:06:25.889Z,18.50
2023-03-11T19:08:59.396Z,15.85
2023-03-11T19:11:34.179Z,24.95
2023-03-11T19:14:07.583Z,17.92
2023-03-11T19:16:41.104Z,17.35
2023-03-11T19:19:14.477Z,15.52
2023-03-11T19:21:48.127Z,14.40
2023-03-11T19:24:21.513Z,12.23
2023-03-11T19:26:56.225Z,17.70
2023-03-11T19:29:29.534Z,13.13
2023-03-11T19:32:03.656Z,12.82
2023-03-11T19:34:37.295Z,12.95
2023-03-11T19:37:10.620Z,20.60
2023-03-11T19:39:43.999Z,17.00
2023-03-11T19:42:19.724Z,17.48
2023-03-11T19:44:54.389Z,14.40
2023-03-11T19:47:28.031Z,11.80
2023-03-11T19:52:36.140Z,15.40
2023-03-11T19:55:10.009Z,19.58
2023-03-11T19:57:44.753Z,15.75
2023-03-11T20:00:19.781Z,15.90
2023-03-11T20:02:56.606Z,19.63
2023-03-11T20:05:30.035Z,15.35
2023-03-11T20:08:03.860Z,12.82
2023-03-11T20:13:14.789Z,11.95
2023-03-11T20:15:48.365Z,14.68
2023-03-11T20:18:21.747Z,12.30
2023-03-11T20:20:55.131Z,14.25
2023-03-11T20:23:28.496Z,13.80
2023-03-11T20:26:05.176Z,7.68
2023-03-11T20:28:40.071Z,11.43
2023-03-11T20:31:16.061Z,8.05
2023-03-11T20:33:50.944Z,9.82
2023-03-11T20:36:26.830Z,10.25
2023-03-11T20:39:00.805Z,12.63
2023-03-11T20:41:37.455Z,8.90
2023-03-11T20:44:14.067Z,10.15
2023-03-11T20:46:49.480Z,14.05
2023-03-11T20:49:22.934Z,7.85
2023-03-11T20:51:56.485Z,7.57
2023-03-11T20:54:29.963Z,7.63
2023-03-11T20:57:03.351Z,10.95
2023-03-11T20:59:38.070Z,8.27
2023-03-11T21:02:12.899Z,8.65
2023-03-11T21:04:47.912Z,11.05
2023-03-11T21:07:21.231Z,7.53
2023-03-11T21:09:55.115Z,5.22
2023-03-11T21:12:31.141Z,10.07
2023-03-11T21:15:09.158Z,5.65
2023-03-11T21:17:42.494Z,6.07
2023-03-11T21:20:16.758Z,10.30
2023-03-11T21:22:50.104Z,6.45
2023-03-11T21:25:23.631Z,8.35
2023-03-11T21:27:57.037Z,10.98
2023-03-11T21:30:32.025Z,12.63
2023-03-11T21:33:05.654Z,6.85
2023-03-11T21:35:39.238Z,4.45
2023-03-11T21:38:12.680Z,4.60
2023-03-11T21:40:46.315Z,6.43
2023-03-11T21:43:20.605Z,6.15
2023-03-11T21:45:55.401Z,6.57
2023-03-11T21:48:28.986Z,5.70
2023-03-11T21:51:02.673Z,6.25
2023-03-11T21:53:36.916Z,5.03
2023-03-11T21:56:11.007Z,8.73
2023-03-11T21:58:44.704Z,5.03
2023-03-11T22:06:26.028Z,4.00
2023-03-11T22:08:59.399Z,7.13
2023-03-11T22:11:32.920Z,5.95
2023-03-11T22:14:06.506Z,3.22
2023-03-11T22:16:41.350Z,3.25
2023-03-11T22:19:14.992Z,6.95
2023-03-11T22:21:49.063Z,3.67
2023-03-11T22:24:22.371Z,5.32
2023-03-11T22:26:55.693Z,4.68
2023-03-11T22:29:28.969Z,3.83
2023-03-11T22:32:03.741Z,4.25
2023-03-11T22:34:37.144Z,3.28
2023-03-11T22:37:10.525Z,4.38
2023-03-11T22:39:43.891Z,2.55
2023-03-11T22:42:17.261Z,3.28
2023-03-11T22:44:50.684Z,5.00
2023-03-11T22:47:25.506Z,3.00
2023-03-11T22:49:58.827Z,3.70
2023-03-11T22:52:32.140Z,4.85
2023-03-11T22:55:05.995Z,5.18
2023-03-11T22:57:39.629Z,2.28
2023-03-11T23:00:17.257Z,4.50
2023-03-11T23:02:55.494Z,2.20
2023-03-11T23:05:28.828Z,4.28
2023-03-11T23:08:02.153Z,2.15
2023-03-11T23:10:35.483Z,2.65
2023-03-11T23:13:08.962Z,4.43
2023-03-11T23:15:43.140Z,4.85
2023-03-11T23:18:18.034Z,5.30
2023-03-11T23:20:51.312Z,3.47
2023-03-11T23:23:24.644Z,2.88
2023-03-11T23:25:58.155Z,2.38
2023-03-11T23:28:31.783Z,3.35
2023-03-11T23:31:05.551Z,2.70
2023-03-11T23:36:16.074Z,3.65
2023-03-11T23:38:50.845Z,2.55
2023-03-11T23:41:24.638Z,3.97
2023-03-11T23:46:31.097Z,4.82
2023-03-11T23:49:05.758Z,6.63
2023-03-11T23:51:39.029Z,4.07
2023-03-11T23:54:12.632Z,3.22
2023-03-11T23:56:46.199Z,2.33
2023-03-11T23:59:19.548Z,3.25
